Cwmbran, United Kingdom
Current Conditions -  °F | °C
As of 11:50 AM on Friday 21 Nov 2014 (Local Time) from EGFF Reporting Station
Heavy Rain Heavy Rain  
Wind Chill:   Ceiling: 400
Heat Index:   Visibility: 1.1mi
Dew Point:   Wind: 15mph
Humidity: 100%   Direction: 80°E
Pressure: 29.94"   Gusts: NA
Location:  51.65°N, 3.03°W
Report Text: EGFF 211150Z AUTO 08013KT 1800 +RA OVC004 08/08 Q1014 REDZ
Loading
Personal Weather Stations






























Interactive Weather Map New forecast layout! Learn more

10-Day Weather Forecast

Advertisements
Track Severe Weather on mobile